Time;durP1;ratioP1;P1;durP2;ratioP2;P2;SDS_P1;SDS_P2;PMS_P1;PMS_P2;Temp;Humidity;BMP_temperature;BMP_pressure;BME280_temperature;BME280_humidity;BME280_pressure;Samples;Min_cycle;Max_cycle;Signal;HPM_P1;HPM_P2
2021/03/25 00:02:07;;;;;;;20.23;12.53;;;;;;;8.52;54.43;97102.97;5031789;28;20191;-68
2021/03/25 00:04:32;;;;;;;23.33;12.67;;;;;;;8.46;55.15;97104.31;5031573;28;20195;-67
2021/03/25 00:07:00;;;;;;;19.50;11.73;;;;;;;8.52;54.43;97103.78;5034008;28;20816;-68
2021/03/25 00:09:28;;;;;;;34.93;13.17;;;;;;;8.43;54.34;97097.59;5016166;28;20222;-67
2021/03/25 00:11:54;;;;;;;20.83;12.67;;;;;;;8.45;55.18;97090.41;5027556;28;20435;-68
2021/03/25 00:14:20;;;;;;;18.63;12.60;;;;;;;8.45;54.36;97094.81;5032678;28;20422;-67
2021/03/25 00:16:46;;;;;;;19.90;12.53;;;;;;;8.43;54.72;97088.91;5033102;28;20422;-68
2021/03/25 00:19:12;;;;;;;19.57;12.53;;;;;;;8.39;54.64;97093.59;5030054;28;20196;-68
2021/03/25 00:21:38;;;;;;;20.10;12.83;;;;;;;8.37;54.94;97095.53;5026010;28;20877;-68
2021/03/25 00:24:05;;;;;;;20.57;12.93;;;;;;;8.28;55.13;97091.16;5032907;28;20217;-67
2021/03/25 00:26:31;;;;;;;21.20;12.73;;;;;;;8.30;55.10;97082.22;5032111;28;20521;-67
2021/03/25 00:28:56;;;;;;;22.00;12.80;;;;;;;8.38;55.29;97088.53;5032879;28;20897;-68
2021/03/25 00:31:22;;;;;;;20.60;13.70;;;;;;;8.39;54.90;97091.00;5033195;28;20430;-67
2021/03/25 00:33:48;;;;;;;23.70;12.57;;;;;;;8.39;54.90;97088.38;5032948;28;20198;-68
2021/03/25 00:36:14;;;;;;;26.43;13.73;;;;;;;8.39;54.55;97082.31;5031159;28;20211;-67
2021/03/25 00:38:40;;;;;;;20.07;12.53;;;;;;;8.39;54.20;97082.31;5032124;28;20429;-68
2021/03/25 00:41:05;;;;;;;21.20;11.47;;;;;;;8.29;54.89;97075.34;5028861;28;20184;-67
2021/03/25 00:43:31;;;;;;;22.33;13.13;;;;;;;8.06;55.09;97069.63;5028184;28;20180;-67
2021/03/25 00:45:57;;;;;;;22.93;12.77;;;;;;;7.76;56.34;97074.03;5032242;28;20359;-68
2021/03/25 00:48:23;;;;;;;30.23;13.70;;;;;;;7.78;56.12;97073.91;5032958;28;20539;-67
2021/03/25 00:50:53;;;;;;;20.17;12.50;;;;;;;8.08;55.76;97065.06;5030804;28;20570;-68
2021/03/25 00:53:25;;;;;;;22.10;12.73;;;;;;;8.18;54.75;97066.88;5032698;28;20430;-68
2021/03/25 00:55:51;;;;;;;20.00;12.03;;;;;;;8.19;55.00;97065.91;5031999;28;20493;-68
2021/03/25 00:58:17;;;;;;;20.50;13.27;;;;;;;8.24;54.76;97058.47;5025873;28;20427;-68
2021/03/25 01:00:45;;;;;;;23.30;12.77;;;;;;;8.24;54.95;97058.47;5032873;28;20507;-67
2021/03/25 01:03:12;;;;;;;21.43;12.00;;;;;;;8.20;54.90;97064.91;5032046;28;20423;-68
2021/03/25 01:05:37;;;;;;;18.70;12.10;;;;;;;8.23;55.12;97054.19;5031881;28;20913;-68
2021/03/25 01:08:04;;;;;;;22.10;12.20;;;;;;;8.21;54.52;97056.97;5032510;28;20426;-68
2021/03/25 01:10:37;;;;;;;19.80;12.70;;;;;;;8.22;54.16;97055.16;5032852;28;20199;-67
2021/03/25 01:13:08;;;;;;;19.13;12.23;;;;;;;8.27;54.46;97047.75;5026318;28;20472;-68
2021/03/25 01:15:34;;;;;;;23.53;12.10;;;;;;;8.22;54.88;97049.94;5013944;28;20450;-68
2021/03/25 01:18:00;;;;;;;19.10;12.10;;;;;;;8.18;54.85;97043.38;5029535;28;20784;-68
2021/03/25 01:20:35;;;;;;;20.57;11.73;;;;;;;8.14;55.09;97054.09;5025568;28;20510;-68
2021/03/25 01:23:01;;;;;;;17.40;12.47;;;;;;;8.00;55.46;97036.25;5031493;28;20476;-68
2021/03/25 01:25:28;;;;;;;19.57;11.00;;;;;;;8.07;55.50;97046.94;5030123;28;20426;-68
2021/03/25 01:27:55;;;;;;;19.80;11.53;;;;;;;7.75;57.06;97035.06;5029397;28;20183;-67
2021/03/25 01:30:21;;;;;;;20.30;12.13;;;;;;;7.66;57.47;97034.09;5025771;28;20446;-67
2021/03/25 01:32:47;;;;;;;18.40;12.27;;;;;;;8.01;56.91;97037.91;5030909;28;20425;-67
2021/03/25 01:35:13;;;;;;;22.93;11.67;;;;;;;7.97;56.63;97037.38;5029681;28;20464;-68
2021/03/25 01:37:40;;;;;;;22.00;13.00;;;;;;;8.08;56.56;97027.72;5031782;28;20192;-67
2021/03/25 01:40:12;;;;;;;19.90;11.47;;;;;;;8.20;56.92;97031.81;5031997;28;20438;-67
2021/03/25 01:42:37;;;;;;;21.63;11.57;;;;;;;8.32;56.21;97024.63;5024736;28;20501;-67
2021/03/25 01:45:28;;;;;;;20.93;11.57;;;;;;;8.43;55.27;97021.84;5030887;28;20445;-68
2021/03/25 01:47:56;;;;;;;21.93;12.43;;;;;;;8.40;55.21;97029.97;5031754;28;20270;-68
2021/03/25 01:50:21;;;;;;;25.33;13.97;;;;;;;8.35;55.70;97024.34;5031685;28;20533;-68
2021/03/25 01:52:52;;;;;;;21.37;11.87;;;;;;;8.31;55.13;97023.00;5022433;28;20525;-68
2021/03/25 01:56:02;;;;;;;19.20;11.90;;;;;;;8.29;55.64;97024.91;5030131;28;20203;-67
2021/03/25 01:58:58;;;;;;;17.00;10.47;;;;;;;8.26;55.78;97019.97;4961199;28;20425;-68
2021/03/25 02:01:32;;;;;;;16.70;10.90;;;;;;;8.28;55.73;97023.28;5024120;28;20411;-68
2021/03/25 02:04:37;;;;;;;22.07;11.20;;;;;;;8.26;55.70;97017.38;5029800;28;20449;-69
2021/03/25 02:07:17;;;;;;;19.37;10.83;;;;;;;8.15;55.96;97016.56;4982569;28;20442;-67
2021/03/25 02:09:56;;;;;;;17.37;10.30;;;;;;;8.13;55.75;97013.28;5028942;28;20469;-66
2021/03/25 02:12:40;;;;;;;13.70;9.10;;;;;;;8.13;56.27;97009.84;4995217;28;20430;-67
2021/03/25 02:15:12;;;;;;;15.50;10.03;;;;;;;8.00;56.45;97002.31;5012017;28;20499;-66
2021/03/25 02:17:44;;;;;;;13.90;9.67;;;;;;;8.07;55.78;97003.38;5030272;28;20412;-69
2021/03/25 02:20:25;;;;;;;17.83;10.90;;;;;;;8.09;55.53;97000.66;5025482;28;20446;-68
2021/03/25 02:23:09;;;;;;;18.10;9.90;;;;;;;8.10;56.05;96997.09;5028641;28;20444;-68
2021/03/25 02:25:38;;;;;;;17.23;11.10;;;;;;;8.07;55.98;97000.78;5030348;28;20499;-68
2021/03/25 02:28:22;;;;;;;18.60;9.40;;;;;;;8.09;56.61;96988.41;5030094;28;20433;-66
2021/03/25 02:31:11;;;;;;;14.13;9.63;;;;;;;8.14;56.52;96991.44;5030330;28;20489;-66
2021/03/25 02:33:39;;;;;;;15.90;8.70;;;;;;;8.20;55.73;96994.41;5029482;28;20437;-69
2021/03/25 02:36:08;;;;;;;14.10;9.13;;;;;;;8.20;56.22;96997.03;5029154;28;20469;-67
2021/03/25 02:38:44;;;;;;;10.77;8.10;;;;;;;8.20;55.55;96995.25;5030268;28;20431;-65
2021/03/25 02:41:34;;;;;;;14.67;7.73;;;;;;;8.23;55.86;96996.75;5020202;28;20924;-67
2021/03/25 02:44:09;;;;;;;11.60;8.67;;;;;;;8.24;55.56;97001.00;5020459;28;20478;-68
2021/03/25 02:46:40;;;;;;;15.87;8.53;;;;;;;8.14;55.53;96996.66;5028448;28;20480;-67
2021/03/25 02:49:08;;;;;;;16.30;8.57;;;;;;;8.15;55.51;97003.53;5028996;28;20469;-68
2021/03/25 02:51:45;;;;;;;12.27;8.00;;;;;;;8.12;55.45;97001.19;5026579;28;20431;-68
2021/03/25 02:54:11;;;;;;;10.40;8.00;;;;;;;8.06;56.41;96999.16;5013834;28;20450;-66
2021/03/25 02:56:38;;;;;;;12.63;7.80;;;;;;;8.04;55.49;96993.25;5030565;28;20466;-67
2021/03/25 02:59:28;;;;;;;13.40;7.80;;;;;;;7.96;55.84;96988.75;5024629;28;20207;-67
2021/03/25 03:01:58;;;;;;;12.97;8.93;;;;;;;7.93;56.40;96998.63;5030488;28;20462;-66
2021/03/25 03:04:29;;;;;;;14.03;8.07;;;;;;;7.78;56.40;96975.59;5013346;28;20453;-67
2021/03/25 03:07:03;;;;;;;10.00;6.90;;;;;;;7.81;56.61;96985.72;5029487;28;20525;-66
2021/03/25 03:09:34;;;;;;;11.40;8.33;;;;;;;7.81;56.55;96990.94;5028379;28;20949;-67
2021/03/25 03:12:01;;;;;;;11.70;7.50;;;;;;;7.87;56.46;96983.53;5022868;28;20438;-66
2021/03/25 03:14:48;;;;;;;11.70;7.80;;;;;;;7.86;56.10;96989.72;5030479;28;20426;-68
2021/03/25 03:17:21;;;;;;;14.03;7.40;;;;;;;7.80;56.03;96988.47;5015134;28;20423;-68
2021/03/25 03:19:56;;;;;;;12.60;7.87;;;;;;;7.75;56.88;96983.69;5027373;28;20454;-68
2021/03/25 03:22:22;;;;;;;18.63;7.77;;;;;;;7.89;56.62;96981.59;5021822;28;20433;-66
2021/03/25 03:24:51;;;;;;;9.33;6.83;;;;;;;7.96;56.21;96985.28;5029863;28;20435;-68
2021/03/25 03:27:36;;;;;;;9.63;6.97;;;;;;;8.22;55.39;96989.88;5031573;28;20524;-68
2021/03/25 03:30:07;;;;;;;11.30;6.37;;;;;;;8.34;54.40;96985.31;5033067;28;20596;-68
2021/03/25 03:32:47;;;;;;;12.47;7.63;;;;;;;8.45;54.28;96987.75;5032721;28;20442;-69
2021/03/25 03:35:23;;;;;;;9.90;6.43;;;;;;;8.41;54.32;96989.84;5032319;28;20453;-68
2021/03/25 03:37:54;;;;;;;14.10;6.47;;;;;;;8.51;53.46;96987.19;5032536;28;20776;-70
2021/03/25 03:40:26;;;;;;;10.23;7.10;;;;;;;8.50;54.00;96988.19;5032487;28;20496;-68
2021/03/25 03:43:05;;;;;;;10.23;7.03;;;;;;;8.48;53.54;96984.88;5026785;28;20733;-68
2021/03/25 03:45:31;;;;;;;10.47;6.97;;;;;;;8.54;52.94;96991.31;5032602;28;20422;-68
2021/03/25 03:48:01;;;;;;;11.40;7.00;;;;;;;8.54;52.93;96981.69;5015968;28;20453;-67
2021/03/25 03:50:31;;;;;;;12.27;7.63;;;;;;;8.51;52.96;96991.59;5032531;28;20207;-68
2021/03/25 03:52:57;;;;;;;9.70;7.00;;;;;;;8.41;53.15;96992.44;5032711;28;20431;-68
2021/03/25 03:55:23;;;;;;;10.90;7.40;;;;;;;8.26;53.39;96988.66;5032038;28;20451;-66
2021/03/25 03:58:08;;;;;;;8.60;7.03;;;;;;;8.13;54.03;96988.94;5026147;28;20432;-68
2021/03/25 04:00:43;;;;;;;11.37;7.53;;;;;;;8.02;53.89;96986.50;5033620;28;20445;-67
2021/03/25 04:03:34;;;;;;;12.20;7.13;;;;;;;7.92;54.56;96983.94;5032319;28;20421;-68
2021/03/25 04:06:03;;;;;;;11.23;7.67;;;;;;;7.83;54.81;96983.00;5030246;28;20427;-67
2021/03/25 04:08:47;;;;;;;13.20;7.63;;;;;;;7.76;54.98;96985.34;5032214;28;20430;-67
2021/03/25 04:11:24;;;;;;;12.50;7.87;;;;;;;7.69;54.78;96989.44;5016204;28;20453;-68
2021/03/25 04:13:59;;;;;;;11.67;7.53;;;;;;;7.59;55.40;96986.03;5029876;28;20525;-68
2021/03/25 04:16:26;;;;;;;11.07;7.77;;;;;;;7.52;55.57;96986.59;5031647;28;20836;-68
2021/03/25 04:19:27;;;;;;;10.73;8.10;;;;;;;7.45;56.24;96985.50;5028752;28;20447;-68
2021/03/25 04:22:03;;;;;;;10.67;7.70;;;;;;;7.40;56.18;96990.31;5015445;28;20438;-68
2021/03/25 04:24:33;;;;;;;10.17;7.50;;;;;;;7.36;56.16;96991.53;5030926;28;20426;-68
2021/03/25 04:27:10;;;;;;;12.83;7.57;;;;;;;7.22;56.75;96985.78;5031043;28;20422;-67
2021/03/25 04:30:05;;;;;;;11.53;7.90;;;;;;;7.12;56.91;96989.34;5031841;28;21030;-68
2021/03/25 04:32:31;;;;;;;10.67;7.80;;;;;;;7.13;56.83;96993.56;5030059;28;20438;-67
2021/03/25 04:34:59;;;;;;;11.57;8.20;;;;;;;7.09;56.61;96985.22;5031102;28;20822;-65
2021/03/25 04:37:27;;;;;;;10.03;7.27;;;;;;;7.06;56.82;96986.31;5030282;28;20187;-67
2021/03/25 04:39:53;;;;;;;11.60;8.03;;;;;;;6.99;56.75;96980.00;5031189;28;20442;-68
2021/03/25 04:42:19;;;;;;;11.97;8.13;;;;;;;6.97;57.03;96981.09;5025046;28;20418;-67
2021/03/25 04:44:46;;;;;;;12.67;7.70;;;;;;;6.94;57.25;96989.16;5029812;28;20452;-68
2021/03/25 04:47:44;;;;;;;12.23;8.50;;;;;;;6.80;58.04;96991.22;5012889;28;20181;-68
2021/03/25 04:50:19;;;;;;;18.43;9.30;;;;;;;6.83;57.76;96995.34;4967183;28;20874;-67
2021/03/25 04:52:46;;;;;;;11.27;7.93;;;;;;;6.82;57.46;96988.47;4974847;28;20441;-67
2021/03/25 04:55:14;;;;;;;12.87;8.57;;;;;;;6.77;57.72;96988.88;4963985;28;20566;-66
2021/03/25 04:57:42;;;;;;;17.07;8.50;;;;;;;6.74;57.85;96981.31;4978608;28;20799;-68
2021/03/25 05:00:15;;;;;;;12.77;8.80;;;;;;;6.72;58.15;96978.88;4969724;28;20453;-68
2021/03/25 05:02:42;;;;;;;11.50;8.10;;;;;;;6.72;58.13;96976.25;4971121;28;20437;-68
2021/03/25 05:05:14;;;;;;;12.60;8.77;;;;;;;6.71;58.09;96978.97;4970159;28;20544;-68
2021/03/25 05:07:40;;;;;;;17.93;9.23;;;;;;;6.74;57.98;96978.72;4970737;28;20424;-68
2021/03/25 05:10:16;;;;;;;13.43;8.80;;;;;;;6.68;57.83;96980.06;4971107;28;20966;-68
2021/03/25 05:12:42;;;;;;;14.10;8.73;;;;;;;6.70;58.15;96977.31;4955132;28;20433;-68
2021/03/25 05:15:13;;;;;;;17.33;8.63;;;;;;;6.74;57.77;96976.13;4955919;28;20459;-68
2021/03/25 05:18:06;;;;;;;11.13;7.80;;;;;;;6.74;57.76;96978.72;4974321;28;20668;-69
2021/03/25 05:20:42;;;;;;;10.03;7.20;;;;;;;6.71;57.75;96981.56;4969842;28;20460;-68
2021/03/25 05:23:18;;;;;;;12.57;8.60;;;;;;;6.70;57.54;96985.97;4970457;28;20417;-68
2021/03/25 05:25:55;;;;;;;12.97;8.07;;;;;;;6.73;57.50;96985.72;4991021;28;20449;-67
2021/03/25 05:28:32;;;;;;;10.80;7.50;;;;;;;6.77;57.01;96988.88;5011063;28;20423;-68
2021/03/25 05:30:58;;;;;;;9.00;6.80;;;;;;;6.83;57.36;96987.50;5010895;28;20914;-68
2021/03/25 05:33:27;;;;;;;12.17;6.80;;;;;;;6.84;56.86;96992.59;5011452;28;20432;-69
2021/03/25 05:36:02;;;;;;;8.50;7.10;;;;;;;6.89;56.50;97000.81;4993135;28;20483;-69
2021/03/25 05:38:28;;;;;;;8.17;6.70;;;;;;;6.89;56.12;96994.78;5009997;28;20427;-68
2021/03/25 05:40:56;;;;;;;7.83;6.00;;;;;;;6.93;56.10;96995.34;5010885;28;20957;-68
2021/03/25 05:43:41;;;;;;;11.70;6.70;;;;;;;7.01;55.69;96992.91;5010847;28;20946;-68
2021/03/25 05:46:22;;;;;;;12.00;7.37;;;;;;;7.15;54.88;97000.31;5011055;28;20521;-69
2021/03/25 05:49:29;;;;;;;12.97;6.60;;;;;;;7.27;54.71;97000.19;5011520;28;20791;-68
2021/03/25 05:51:54;;;;;;;10.33;6.43;;;;;;;7.36;54.45;97004.56;5009544;28;20428;-69
2021/03/25 05:54:32;;;;;;;13.23;7.07;;;;;;;7.42;53.97;97006.66;5011562;28;20817;-67
2021/03/25 05:57:23;;;;;;;8.53;5.87;;;;;;;7.53;53.56;97003.91;5012771;28;20219;-69
2021/03/25 05:59:56;;;;;;;12.00;5.93;;;;;;;7.63;53.49;97003.88;5007615;28;20443;-68
2021/03/25 06:02:33;;;;;;;13.90;5.80;;;;;;;7.77;53.12;97009.63;5012103;28;20481;-68
2021/03/25 06:04:59;;;;;;;9.10;5.23;;;;;;;7.97;52.25;97000.81;5010313;28;20423;-68
2021/03/25 06:07:24;;;;;;;6.43;5.47;;;;;;;8.24;51.70;97006.25;5010513;28;20442;-69
2021/03/25 06:10:07;;;;;;;13.27;6.50;;;;;;;8.46;50.74;97005.06;5010804;28;20216;-68
2021/03/25 06:12:50;;;;;;;9.60;5.83;;;;;;;8.60;51.03;97004.63;5009532;28;20220;-68
2021/03/25 06:16:01;;;;;;;12.20;5.80;;;;;;;8.82;50.45;97007.81;5002727;28;20506;-69
2021/03/25 06:18:32;;;;;;;16.10;5.60;;;;;;;8.97;49.62;97010.75;4988496;28;20452;-68
2021/03/25 06:21:32;;;;;;;7.53;5.30;;;;;;;9.20;49.57;97005.94;5011108;28;20525;-68
2021/03/25 06:24:09;;;;;;;5.88;3.85;;;;;;;12.03;51.72;97001.75;5004321;28;20489;-65
2021/03/25 06:26:53;;;;;;;4.57;3.20;;;;;;;14.33;46.46;96997.94;5010023;28;20198;-64
2021/03/25 06:29:26;;;;;;;7.63;3.73;;;;;;;16.18;41.07;96996.88;5003315;28;20439;-65
2021/03/25 06:32:15;;;;;;;8.03;4.07;;;;;;;17.09;38.64;96998.56;5017506;28;20419;-66
2021/03/25 06:34:45;;;;;;;6.23;4.20;;;;;;;17.27;36.96;97000.66;5012012;28;20450;-65
2021/03/25 06:37:22;;;;;;;7.70;4.40;;;;;;;17.76;35.77;97006.66;5002344;28;20426;-64
2021/03/25 06:40:04;;;;;;;8.40;3.90;;;;;;;18.11;35.31;97005.66;5003877;28;20542;-65
2021/03/25 06:42:45;;;;;;;7.30;3.60;;;;;;;18.36;34.25;97007.69;5010124;28;20507;-67
2021/03/25 06:45:25;;;;;;;6.83;4.10;;;;;;;18.40;34.59;97009.72;5010114;28;20418;-67
2021/03/25 06:48:09;;;;;;;9.23;4.03;;;;;;;18.61;33.58;97014.97;5009312;28;20477;-66
2021/03/25 06:50:50;;;;;;;6.23;3.77;;;;;;;18.70;32.12;97006.59;5014327;28;20447;-65
2021/03/25 06:53:32;;;;;;;4.80;4.13;;;;;;;18.72;33.50;97009.81;5003499;28;20438;-66
2021/03/25 06:56:01;;;;;;;5.77;4.43;;;;;;;18.91;33.00;97009.13;5007814;28;20468;-67
2021/03/25 06:58:30;;;;;;;6.80;4.47;;;;;;;18.92;32.54;97000.16;5014933;28;20741;-62
2021/03/25 07:01:23;;;;;;;8.00;4.53;;;;;;;19.03;32.13;97005.66;5008229;28;21040;-65
2021/03/25 07:03:54;;;;;;;5.40;4.50;;;;;;;19.00;30.51;97015.91;5009066;28;20423;-65
2021/03/25 07:06:21;;;;;;;7.27;4.33;;;;;;;18.85;31.62;97008.97;5017764;28;20948;-64
2021/03/25 07:08:46;;;;;;;7.07;4.57;;;;;;;19.14;31.96;97012.16;5025667;28;20560;-65
2021/03/25 07:11:18;;;;;;;7.70;4.00;;;;;;;18.97;31.66;97009.16;5027410;28;20427;-66
2021/03/25 07:14:10;;;;;;;5.77;4.30;;;;;;;19.04;31.92;97006.47;5007701;28;20502;-64
2021/03/25 07:16:39;;;;;;;7.83;4.03;;;;;;;18.71;32.07;97010.03;5004484;28;20563;-64
2021/03/25 07:19:10;;;;;;;8.50;3.57;;;;;;;19.09;31.62;97008.50;5017165;28;20542;-68
2021/03/25 07:21:42;;;;;;;10.03;3.70;;;;;;;19.18;30.76;97013.34;5022563;28;20477;-66
2021/03/25 07:24:23;;;;;;;11.70;3.97;;;;;;;19.22;30.93;97004.97;5029929;28;20518;-65
2021/03/25 07:26:55;;;;;;;9.20;3.80;;;;;;;19.46;30.60;97003.41;5028824;28;20442;-66
2021/03/25 07:29:34;;;;;;;10.00;4.00;;;;;;;19.63;30.86;97015.13;5012245;28;21073;-65
2021/03/25 07:32:05;;;;;;;8.50;3.33;;;;;;;19.58;29.36;97014.97;5021652;28;20796;-67
2021/03/25 07:34:41;;;;;;;8.90;3.80;;;;;;;19.47;30.66;97007.66;5022414;28;20469;-65
2021/03/25 07:37:08;;;;;;;8.70;3.90;;;;;;;19.39;31.06;97013.25;5027623;28;20422;-65
2021/03/25 07:39:48;;;;;;;14.20;3.77;;;;;;;19.43;30.72;97019.75;5028534;28;20454;-66
2021/03/25 07:42:31;;;;;;;5.37;3.60;;;;;;;19.53;29.24;97021.97;5018751;28;20414;-66
2021/03/25 07:45:16;;;;;;;5.60;3.27;;;;;;;18.90;29.41;97026.13;5028334;28;20423;-66
2021/03/25 07:47:42;;;;;;;5.23;3.60;;;;;;;18.79;31.81;97025.72;5030496;28;20513;-65
2021/03/25 07:50:30;;;;;;;6.70;3.47;;;;;;;19.13;30.58;97020.31;5026384;28;20447;-65
2021/03/25 07:52:56;;;;;;;5.67;2.93;;;;;;;19.00;29.28;97026.50;5011704;28;20202;-66
2021/03/25 07:55:26;;;;;;;6.90;3.57;;;;;;;18.07;29.36;97030.97;5023177;28;20474;-66
2021/03/25 07:57:53;;;;;;;14.93;3.50;;;;;;;16.83;31.21;97028.38;5024431;28;20416;-66
2021/03/25 08:00:35;;;;;;;6.90;3.37;;;;;;;18.17;31.03;97026.06;5024254;28;20484;-65
2021/03/25 08:03:18;;;;;;;4.47;3.17;;;;;;;17.88;29.60;97035.19;5029545;28;20943;-66
2021/03/25 08:05:47;;;;;;;5.60;3.93;;;;;;;18.08;31.04;97032.59;5025799;28;20418;-66
2021/03/25 08:08:27;;;;;;;5.67;3.60;;;;;;;18.57;31.68;97033.16;5005180;28;20514;-65
2021/03/25 08:11:15;;;;;;;9.37;3.67;;;;;;;18.65;30.69;97040.09;5009174;28;20475;-65
2021/03/25 08:13:49;;;;;;;5.60;3.20;;;;;;;19.19;30.54;97022.94;5021346;28;20426;-66
2021/03/25 08:16:16;;;;;;;7.67;3.10;;;;;;;19.60;28.38;97025.38;5016008;28;20450;-64
2021/03/25 08:18:54;;;;;;;7.87;3.63;;;;;;;19.53;29.63;97022.75;5028832;28;20517;-65
2021/03/25 08:21:40;;;;;;;3.70;3.13;;;;;;;19.85;30.03;97021.94;4996336;28;20432;-67
2021/03/25 08:24:19;;;;;;;8.93;4.17;;;;;;;19.68;28.02;97022.44;5029379;28;20469;-65
2021/03/25 08:26:57;;;;;;;6.27;3.77;;;;;;;19.70;28.09;97014.28;5028495;28;20863;-65
2021/03/25 08:29:29;;;;;;;6.30;2.93;;;;;;;19.78;29.50;97028.09;5031954;28;20450;-65
2021/03/25 08:32:13;;;;;;;11.77;3.90;;;;;;;19.00;28.37;97034.47;5030920;28;20447;-67
2021/03/25 08:34:49;;;;;;;3.90;3.00;;;;;;;19.01;30.01;97026.28;5023356;28;20415;-66
2021/03/25 08:37:29;;;;;;;4.70;3.00;;;;;;;18.05;29.67;97030.34;5006354;28;20520;-66
2021/03/25 08:40:20;;;;;;;5.53;3.93;;;;;;;18.02;29.73;97025.47;5031466;28;20446;-66
2021/03/25 08:42:52;;;;;;;4.73;3.40;;;;;;;18.88;28.74;97024.50;5026025;28;20426;-66
2021/03/25 08:45:27;;;;;;;5.23;3.57;;;;;;;18.26;30.95;97029.31;5031247;28;20481;-66
2021/03/25 08:47:55;;;;;;;7.43;3.80;;;;;;;17.59;30.19;97026.59;5032578;28;20425;-66
2021/03/25 08:50:36;;;;;;;5.03;3.70;;;;;;;18.00;30.64;97036.25;5032516;28;20496;-65
2021/03/25 08:53:42;;;;;;;8.90;3.87;;;;;;;18.24;29.05;97034.00;5028714;28;20513;-66
2021/03/25 08:56:15;;;;;;;7.33;3.00;;;;;;;18.15;32.36;97027.28;5009193;28;20881;-67
2021/03/25 08:58:42;;;;;;;6.37;3.73;;;;;;;18.47;29.35;97028.28;5020673;28;20419;-66
2021/03/25 09:01:15;;;;;;;5.33;3.40;;;;;;;18.83;30.11;97029.59;5031045;28;20525;-65
2021/03/25 09:03:44;;;;;;;7.20;3.83;;;;;;;18.96;29.65;97031.44;5031308;28;20431;-65
2021/03/25 09:06:21;;;;;;;6.37;3.70;;;;;;;18.70;28.20;97032.28;5027298;28;20445;-65
2021/03/25 09:08:50;;;;;;;3.63;3.13;;;;;;;19.44;29.45;97032.03;5025898;28;20525;-66
2021/03/25 09:11:17;;;;;;;6.70;3.73;;;;;;;19.98;28.80;97031.66;5031282;28;20407;-66
2021/03/25 09:13:46;;;;;;;5.23;3.87;;;;;;;19.60;29.34;97033.34;5030771;28;20418;-66
2021/03/25 09:16:32;;;;;;;4.37;3.23;;;;;;;20.28;28.59;97031.84;5029719;28;20470;-66
2021/03/25 09:18:59;;;;;;;4.20;3.43;;;;;;;20.63;27.18;97033.13;5010438;28;20498;-66
2021/03/25 09:21:27;;;;;;;38.47;10.73;;;;;;;19.49;28.95;97027.69;5030748;28;20953;-65
2021/03/25 09:24:09;;;;;;;7.57;4.03;;;;;;;18.62;27.94;97029.88;5013087;28;20441;-65
2021/03/25 09:26:40;;;;;;;8.37;3.90;;;;;;;18.71;29.28;97021.47;5032754;28;20430;-65
2021/03/25 09:29:08;;;;;;;6.97;3.53;;;;;;;19.40;29.04;97026.31;5028031;28;20438;-65
2021/03/25 09:31:41;;;;;;;6.13;4.17;;;;;;;19.15;27.50;97024.38;5034922;28;20434;-65
2021/03/25 09:34:10;;;;;;;7.83;4.70;;;;;;;19.35;27.38;97018.16;5037070;28;20419;-66
2021/03/25 09:36:35;;;;;;;7.97;4.30;;;;;;;20.33;27.96;97021.34;5027775;28;20549;-66
2021/03/25 09:39:02;;;;;;;8.10;3.87;;;;;;;20.07;26.54;97020.56;5026180;28;20462;-66
2021/03/25 09:41:28;;;;;;;5.77;3.40;;;;;;;20.31;28.52;97025.28;5025445;28;20678;-65
2021/03/25 09:44:12;;;;;;;6.33;3.33;;;;;;;20.79;26.82;97018.47;5031086;28;20549;-66
2021/03/25 09:46:54;;;;;;;7.57;4.87;;;;;;;20.32;26.73;97022.38;5031459;28;20454;-64
2021/03/25 09:49:28;;;;;;;8.23;4.63;;;;;;;20.76;26.42;97021.56;5016914;28;20507;-65
2021/03/25 09:52:06;;;;;;;5.33;3.80;;;;;;;20.37;25.82;97022.53;5031355;28;20952;-65
2021/03/25 09:54:48;;;;;;;8.13;4.47;;;;;;;20.78;26.85;97030.94;5025415;28;20522;-65
2021/03/25 09:57:29;;;;;;;6.33;4.03;;;;;;;20.04;26.18;97031.63;5015030;28;20423;-66
2021/03/25 10:00:13;;;;;;;6.33;3.97;;;;;;;20.89;27.17;97026.75;5023343;28;20453;-66
2021/03/25 10:02:43;;;;;;;10.73;5.00;;;;;;;21.24;26.01;97017.28;5031431;28;20415;-66
2021/03/25 10:05:21;;;;;;;9.03;4.17;;;;;;;19.45;27.12;97017.72;5027791;28;20458;-65
2021/03/25 10:07:48;;;;;;;11.73;6.70;;;;;;;19.26;28.18;97014.94;5025338;28;20429;-65
2021/03/25 10:10:41;;;;;;;11.77;5.40;;;;;;;19.44;27.82;97016.09;5030812;28;20450;-66
2021/03/25 10:13:13;;;;;;;12.53;4.57;;;;;;;18.93;27.62;97015.06;5030184;28;20444;-66
2021/03/25 10:16:08;;;;;;;18.80;7.30;;;;;;;20.19;27.64;97007.38;5031822;28;20498;-66
2021/03/25 10:18:33;;;;;;;12.67;5.33;;;;;;;20.08;28.04;97016.06;5019219;28;20464;-66
2021/03/25 10:21:09;;;;;;;12.73;5.63;;;;;;;18.58;30.27;97030.28;5023052;28;20526;-66
2021/03/25 10:23:38;;;;;;;15.60;5.63;;;;;;;18.78;30.12;97013.47;5030254;28;20211;-64
2021/03/25 10:26:04;;;;;;;16.10;5.50;;;;;;;19.15;29.61;97002.34;5027703;28;20450;-66
2021/03/25 10:28:32;;;;;;;8.93;5.50;;;;;;;19.58;28.90;97008.81;5027735;28;20426;-66
2021/03/25 10:31:06;;;;;;;9.30;6.27;;;;;;;18.73;29.56;97002.69;5028985;28;20230;-66
2021/03/25 10:33:33;;;;;;;10.30;6.00;;;;;;;18.64;29.78;97010.06;5026853;28;20433;-66
2021/03/25 10:36:13;;;;;;;12.70;6.30;;;;;;;18.43;30.06;97016.44;5022547;28;20490;-66
2021/03/25 10:38:49;;;;;;;9.37;5.27;;;;;;;18.78;29.17;97004.72;5026288;28;20463;-65
2021/03/25 10:41:24;;;;;;;10.47;5.63;;;;;;;18.66;30.49;97002.69;5010375;28;20426;-65
2021/03/25 10:43:50;;;;;;;11.70;5.67;;;;;;;18.89;29.23;97001.41;5030618;28;20433;-67
2021/03/25 10:46:29;;;;;;;9.97;7.03;;;;;;;19.11;29.38;96999.28;5029702;28;20441;-66
2021/03/25 10:49:00;;;;;;;9.10;6.27;;;;;;;19.19;28.94;96993.72;5028619;28;20929;-66
2021/03/25 10:51:26;;;;;;;12.90;5.40;;;;;;;19.23;28.80;97001.28;5029004;28;20430;-66
2021/03/25 10:53:54;;;;;;;10.67;6.43;;;;;;;19.47;28.61;97000.53;5028757;28;20422;-68
2021/03/25 10:56:40;;;;;;;12.00;6.03;;;;;;;18.70;29.04;97000.44;5029424;28;20559;-68
2021/03/25 10:59:19;;;;;;;11.07;6.30;;;;;;;19.68;28.32;96995.06;5018207;28;20544;-68
2021/03/25 11:01:51;;;;;;;16.43;7.27;;;;;;;19.44;28.52;96992.97;5029216;28;20847;-67
2021/03/25 11:04:21;;;;;;;11.50;6.17;;;;;;;19.07;28.93;96989.31;5030253;28;21115;-68
2021/03/25 11:06:47;;;;;;;19.00;8.10;;;;;;;18.39;29.92;96994.81;5026472;28;20422;-68
2021/03/25 11:09:17;;;;;;;11.40;6.63;;;;;;;18.86;29.66;96988.53;5025681;28;20961;-69
2021/03/25 11:11:43;;;;;;;13.77;7.20;;;;;;;18.82;29.64;96985.50;5012978;28;20512;-67
2021/03/25 11:14:20;;;;;;;12.30;5.73;;;;;;;18.82;29.53;96982.03;5021034;28;20976;-68
2021/03/25 11:16:54;;;;;;;11.37;7.00;;;;;;;19.21;28.94;96984.72;5028641;28;20207;-69
2021/03/25 11:19:21;;;;;;;11.93;6.93;;;;;;;19.21;28.73;96980.25;5025960;28;20445;-68
2021/03/25 11:21:47;;;;;;;11.23;6.07;;;;;;;18.65;29.56;96987.81;5021978;28;20434;-67
2021/03/25 11:24:22;;;;;;;14.13;7.00;;;;;;;18.81;29.55;96978.56;5030172;28;20510;-69
2021/03/25 11:26:55;;;;;;;13.93;6.83;;;;;;;19.18;29.13;96976.16;5027856;28;20615;-69
2021/03/25 11:29:21;;;;;;;12.00;6.67;;;;;;;19.14;28.70;96974.97;5029918;28;20445;-68
2021/03/25 11:31:47;;;;;;;13.20;7.10;;;;;;;19.23;28.62;96982.69;5028721;28;20428;-68
2021/03/25 11:34:31;;;;;;;8.97;6.10;;;;;;;19.25;28.89;96975.31;5023871;28;20427;-69
2021/03/25 11:36:57;;;;;;;12.17;5.57;;;;;;;19.41;28.28;96960.69;5025315;28;20231;-68
2021/03/25 11:39:28;;;;;;;9.40;6.03;;;;;;;19.69;28.04;96962.94;5028108;28;20446;-67
2021/03/25 11:41:56;;;;;;;10.60;5.77;;;;;;;20.04;27.58;96962.47;5020422;28;20533;-68
2021/03/25 11:44:42;;;;;;;15.10;5.80;;;;;;;19.92;27.75;96953.56;5023428;28;20958;-69
2021/03/25 11:47:30;;;;;;;13.10;6.40;;;;;;;20.42;27.02;96952.69;5014585;28;20505;-69
2021/03/25 11:49:55;;;;;;;12.33;6.37;;;;;;;20.10;27.25;96955.44;5030931;28;20508;-69
2021/03/25 11:52:21;;;;;;;9.20;6.10;;;;;;;19.92;27.56;96959.72;5032129;28;20430;-69
2021/03/25 11:54:57;;;;;;;12.23;7.27;;;;;;;19.59;28.19;96954.66;5022780;28;20694;-69
2021/03/25 11:57:33;;;;;;;9.90;6.30;;;;;;;19.89;27.92;96956.69;5027583;28;20590;-69
2021/03/25 12:00:14;;;;;;;9.50;5.50;;;;;;;20.03;27.60;96949.41;5015439;28;20456;-69
2021/03/25 12:02:42;;;;;;;11.33;6.10;;;;;;;20.40;27.32;96949.44;5032781;28;20445;-69
2021/03/25 12:05:29;;;;;;;8.63;5.60;;;;;;;21.14;26.75;96945.91;5027318;28;20418;-69